createdAt,value
2017-05-26T00:00:28.593Z,0
2017-05-26T00:01:09.301Z,0
2017-05-26T00:01:49.977Z,0
2017-05-26T00:02:30.574Z,0
2017-05-26T00:03:11.225Z,0
2017-05-26T00:03:51.884Z,0
2017-05-26T00:04:32.540Z,0
2017-05-26T00:05:13.200Z,0
2017-05-26T00:05:53.838Z,0
2017-05-26T00:06:34.495Z,0
2017-05-26T00:07:15.223Z,0
2017-05-26T00:07:55.819Z,0
2017-05-26T00:08:36.450Z,0
2017-05-26T00:09:17.106Z,0
2017-05-26T00:09:57.749Z,0
2017-05-26T00:10:38.427Z,0
2017-05-26T00:11:19.063Z,0
2017-05-26T00:11:59.653Z,0
2017-05-26T00:12:40.205Z,0
2017-05-26T00:13:21.286Z,0
2017-05-26T00:14:02.028Z,0
2017-05-26T00:14:42.684Z,0
2017-05-26T00:15:23.195Z,0
2017-05-26T00:16:03.792Z,0
2017-05-26T00:16:44.415Z,0
2017-05-26T00:17:25.081Z,0
2017-05-26T00:18:05.598Z,0
2017-05-26T00:18:46.205Z,0
2017-05-26T00:19:26.819Z,0
2017-05-26T00:20:07.510Z,0
2017-05-26T00:20:48.032Z,0
2017-05-26T00:21:28.729Z,0
2017-05-26T00:22:09.314Z,0
2017-05-26T00:22:49.998Z,0
2017-05-26T00:23:30.516Z,0
2017-05-26T00:24:11.126Z,0
2017-05-26T00:24:51.813Z,0
2017-05-26T00:25:32.414Z,0
2017-05-26T00:26:12.965Z,0
2017-05-26T00:26:53.536Z,0
2017-05-26T00:27:34.171Z,0
2017-05-26T00:28:14.839Z,0
2017-05-26T00:28:55.513Z,0
2017-05-26T00:29:36.157Z,0
2017-05-26T00:30:16.776Z,0
2017-05-26T00:30:57.446Z,0
2017-05-26T00:31:38.089Z,0
2017-05-26T00:32:18.733Z,0
2017-05-26T00:32:59.366Z,0
2017-05-26T00:33:40.000Z,0
2017-05-26T00:34:20.669Z,0
2017-05-26T00:35:01.321Z,0
2017-05-26T00:35:42.008Z,0
2017-05-26T00:36:22.618Z,0
2017-05-26T00:37:03.284Z,0
2017-05-26T00:37:43.928Z,0
2017-05-26T00:38:24.600Z,0
2017-05-26T00:39:05.242Z,0
2017-05-26T00:39:45.893Z,0
2017-05-26T00:40:26.545Z,0
2017-05-26T00:41:07.186Z,0
2017-05-26T00:41:47.868Z,0
2017-05-26T00:42:28.488Z,0
2017-05-26T00:43:09.163Z,0
2017-05-26T00:43:49.811Z,0
2017-05-26T00:44:30.463Z,0
2017-05-26T00:45:11.120Z,0
2017-05-26T00:45:51.784Z,0
2017-05-26T00:46:32.423Z,0
2017-05-26T00:47:13.055Z,0
2017-05-26T00:47:53.745Z,0
2017-05-26T00:48:34.393Z,0
2017-05-26T00:49:15.025Z,0
2017-05-26T00:49:55.589Z,0
2017-05-26T00:50:36.215Z,0
2017-05-26T00:51:16.876Z,0
2017-05-26T00:51:57.435Z,0
2017-05-26T00:52:38.036Z,0
2017-05-26T00:53:18.650Z,0
2017-05-26T00:53:59.178Z,0
2017-05-26T00:54:39.792Z,0
2017-05-26T00:55:20.382Z,0
2017-05-26T00:56:00.882Z,0
2017-05-26T00:56:41.528Z,0
2017-05-26T00:57:22.141Z,0
2017-05-26T00:58:02.716Z,0
2017-05-26T00:58:43.406Z,0
2017-05-26T00:59:23.997Z,0
2017-05-26T01:00:04.537Z,0
2017-05-26T01:00:45.154Z,0
2017-05-26T01:01:25.749Z,0
2017-05-26T01:02:06.410Z,0
2017-05-26T01:02:47.061Z,0
2017-05-26T01:03:28.114Z,0
2017-05-26T01:04:08.775Z,0
2017-05-26T01:04:49.425Z,0
2017-05-26T01:05:30.078Z,0
2017-05-26T01:06:10.732Z,0
2017-05-26T01:06:51.422Z,0
2017-05-26T01:07:31.944Z,0
2017-05-26T01:08:12.554Z,0
2017-05-26T01:08:53.141Z,0
2017-05-26T01:09:33.785Z,0
2017-05-26T01:10:14.482Z,0
2017-05-26T01:10:55.025Z,0
2017-05-26T01:11:35.721Z,0
2017-05-26T01:12:16.301Z,0
2017-05-26T01:12:56.843Z,0
2017-05-26T01:13:37.452Z,0
2017-05-26T01:14:18.049Z,0
2017-05-26T01:14:58.580Z,0
2017-05-26T01:15:39.199Z,0
2017-05-26T01:16:19.804Z,0
2017-05-26T01:17:00.455Z,0
2017-05-26T01:17:41.122Z,0
2017-05-26T01:18:21.762Z,0
2017-05-26T01:19:02.414Z,0
2017-05-26T01:19:43.085Z,0
2017-05-26T01:20:23.721Z,0
2017-05-26T01:21:04.384Z,0
2017-05-26T01:21:44.926Z,0
2017-05-26T01:22:25.577Z,0
2017-05-26T01:23:06.266Z,0
2017-05-26T01:23:46.884Z,0
2017-05-26T01:24:27.553Z,0
2017-05-26T01:25:08.224Z,0
2017-05-26T01:25:48.846Z,0
2017-05-26T01:26:29.516Z,0
2017-05-26T01:27:10.156Z,0
2017-05-26T01:27:50.903Z,0
2017-05-26T01:28:31.557Z,0
2017-05-26T01:29:12.210Z,0
2017-05-26T01:29:52.863Z,0
2017-05-26T01:30:33.522Z,0
2017-05-26T01:31:14.168Z,0
2017-05-26T01:31:54.827Z,0
2017-05-26T01:32:35.380Z,0
2017-05-26T01:33:16.062Z,0
2017-05-26T01:33:56.688Z,0
2017-05-26T01:34:38.272Z,0
2017-05-26T01:35:18.904Z,0
2017-05-26T01:35:59.557Z,0
2017-05-26T01:36:40.208Z,0
2017-05-26T01:37:20.920Z,0
2017-05-26T01:38:01.544Z,0
2017-05-26T01:38:42.197Z,0
2017-05-26T01:39:22.853Z,0
2017-05-26T01:40:03.485Z,0
2017-05-26T01:40:44.131Z,0
2017-05-26T01:41:24.788Z,0
2017-05-26T01:42:05.435Z,0
2017-05-26T01:42:46.094Z,0
2017-05-26T01:43:26.745Z,0
2017-05-26T01:44:07.401Z,0
2017-05-26T01:44:48.045Z,0
2017-05-26T01:45:28.731Z,0
2017-05-26T01:46:09.372Z,0
2017-05-26T01:46:50.056Z,0
2017-05-26T01:47:30.605Z,0
2017-05-26T01:48:11.297Z,0
2017-05-26T01:48:51.986Z,0
2017-05-26T01:49:32.569Z,0
2017-05-26T01:50:13.091Z,0
2017-05-26T01:50:53.795Z,0
2017-05-26T01:51:34.494Z,0
2017-05-26T01:52:15.145Z,0
2017-05-26T01:52:55.787Z,0
2017-05-26T01:53:36.435Z,0
2017-05-26T01:54:17.105Z,0
2017-05-26T01:54:57.739Z,0
2017-05-26T01:55:38.419Z,0
2017-05-26T01:56:19.048Z,0
2017-05-26T01:56:59.741Z,0
2017-05-26T01:57:40.270Z,0
2017-05-26T01:58:20.971Z,0
2017-05-26T01:59:01.662Z,0
2017-05-26T01:59:42.567Z,0
2017-05-26T02:00:23.092Z,0
2017-05-26T02:01:03.795Z,0
2017-05-26T02:01:44.493Z,0
2017-05-26T02:02:25.155Z,0
2017-05-26T02:03:05.779Z,0
2017-05-26T02:03:46.453Z,0
2017-05-26T02:04:27.097Z,0
2017-05-26T02:05:07.758Z,0
2017-05-26T02:05:48.411Z,0
2017-05-26T02:06:29.044Z,0
2017-05-26T02:07:09.755Z,0
2017-05-26T02:07:50.326Z,0
2017-05-26T02:08:31.001Z,0
2017-05-26T02:09:11.672Z,0
2017-05-26T02:09:52.354Z,0
2017-05-26T02:10:32.902Z,0
2017-05-26T02:11:13.584Z,0
2017-05-26T02:11:54.293Z,0
2017-05-26T02:12:34.848Z,0
2017-05-26T02:13:15.533Z,0
2017-05-26T02:13:56.229Z,0
2017-05-26T02:14:36.755Z,0
2017-05-26T02:15:17.402Z,0
2017-05-26T02:15:58.081Z,0
2017-05-26T02:16:38.610Z,0
2017-05-26T02:17:19.264Z,0
2017-05-26T02:17:59.915Z,0
2017-05-26T02:18:40.577Z,0
2017-05-26T02:19:21.221Z,0
2017-05-26T02:20:01.876Z,0
2017-05-26T02:20:42.909Z,0
2017-05-26T02:21:23.592Z,0
2017-05-26T02:22:04.244Z,0
2017-05-26T02:22:44.898Z,0
2017-05-26T02:23:25.548Z,0
2017-05-26T02:24:06.198Z,0
2017-05-26T02:24:46.855Z,0
2017-05-26T02:25:27.484Z,0
2017-05-26T02:26:08.135Z,0
2017-05-26T02:26:48.815Z,0
2017-05-26T02:27:29.465Z,0
2017-05-26T02:28:10.109Z,0
2017-05-26T02:28:50.762Z,0
2017-05-26T02:29:31.420Z,0
2017-05-26T02:30:12.077Z,0
2017-05-26T02:30:52.734Z,0
2017-05-26T02:31:33.384Z,0
2017-05-26T02:32:14.089Z,0
2017-05-26T02:32:54.715Z,0
2017-05-26T02:33:35.370Z,0
2017-05-26T02:34:16.047Z,0
2017-05-26T02:34:56.676Z,0
2017-05-26T02:35:37.359Z,0
2017-05-26T02:36:17.985Z,0
2017-05-26T02:36:58.639Z,0
2017-05-26T02:37:39.288Z,0
2017-05-26T02:38:19.949Z,0
2017-05-26T02:39:00.599Z,0
2017-05-26T02:39:41.275Z,0
2017-05-26T02:40:21.907Z,0
2017-05-26T02:41:02.552Z,0
2017-05-26T02:41:43.266Z,0
2017-05-26T02:42:23.803Z,0
2017-05-26T02:43:04.483Z,0
2017-05-26T02:43:45.172Z,0
2017-05-26T02:44:25.866Z,0
2017-05-26T02:45:06.413Z,0
2017-05-26T02:45:47.111Z,0
2017-05-26T02:46:27.784Z,0
2017-05-26T02:47:08.476Z,0
2017-05-26T02:47:49.131Z,0
2017-05-26T02:48:29.795Z,0
2017-05-26T02:49:10.452Z,0
2017-05-26T02:49:51.102Z,0
2017-05-26T02:50:31.741Z,0
2017-05-26T02:51:12.402Z,0
2017-05-26T02:51:53.060Z,0
2017-05-26T02:52:33.708Z,0
2017-05-26T02:53:14.369Z,0
2017-05-26T02:53:55.078Z,0
2017-05-26T02:54:35.728Z,0
2017-05-26T02:55:16.390Z,0
2017-05-26T02:55:57.071Z,0
2017-05-26T02:56:37.790Z,0
2017-05-26T02:57:18.500Z,0
2017-05-26T02:57:59.044Z,0
2017-05-26T02:58:39.707Z,0
2017-05-26T02:59:20.434Z,0
2017-05-26T03:00:01.110Z,0
2017-05-26T03:00:41.648Z,0
2017-05-26T03:01:22.302Z,0
2017-05-26T03:02:03.014Z,0
2017-05-26T03:02:43.529Z,0
2017-05-26T03:03:24.175Z,0
2017-05-26T03:04:04.853Z,0
2017-05-26T03:04:45.378Z,0
2017-05-26T03:05:26.020Z,0
2017-05-26T03:06:06.732Z,0
2017-05-26T03:06:47.256Z,0
2017-05-26T03:07:27.874Z,0
2017-05-26T03:08:08.594Z,0
2017-05-26T03:08:49.282Z,0
2017-05-26T03:09:29.797Z,0
2017-05-26T03:10:10.487Z,0
2017-05-26T03:10:51.173Z,0
2017-05-26T03:11:31.876Z,5
2017-05-26T03:12:12.499Z,5
2017-05-26T03:12:53.154Z,5
2017-05-26T03:13:33.840Z,5
2017-05-26T03:14:14.451Z,5
2017-05-26T03:14:55.146Z,5
2017-05-26T03:15:35.748Z,5
2017-05-26T03:16:16.426Z,5
2017-05-26T03:16:57.068Z,5
2017-05-26T03:17:37.756Z,5
2017-05-26T03:18:18.258Z,5
2017-05-26T03:18:58.885Z,5
2017-05-26T03:19:39.558Z,5
2017-05-26T03:20:20.284Z,10
2017-05-26T03:21:00.797Z,10
2017-05-26T03:21:41.560Z,10
2017-05-26T03:22:22.189Z,10
2017-05-26T03:23:02.853Z,10
2017-05-26T03:23:43.485Z,10
2017-05-26T03:24:24.164Z,10
2017-05-26T03:25:04.839Z,10
2017-05-26T03:25:45.512Z,10
2017-05-26T03:26:26.164Z,15
2017-05-26T03:27:06.846Z,15
2017-05-26T03:27:47.361Z,15
2017-05-26T03:28:27.974Z,15
2017-05-26T03:29:08.574Z,15
2017-05-26T03:29:49.150Z,15
2017-05-26T03:30:29.660Z,15
2017-05-26T03:31:10.270Z,15
2017-05-26T03:31:50.852Z,20
2017-05-26T03:32:31.506Z,20
2017-05-26T03:33:12.064Z,20
2017-05-26T03:33:52.727Z,20
2017-05-26T03:34:33.365Z,20
2017-05-26T03:35:14.017Z,20
2017-05-26T03:35:54.672Z,25
2017-05-26T03:36:35.336Z,25
2017-05-26T03:37:15.902Z,25
2017-05-26T03:37:56.533Z,25
2017-05-26T03:38:37.180Z,25
2017-05-26T03:39:17.836Z,25
2017-05-26T03:39:58.550Z,30
2017-05-26T03:40:39.139Z,30
2017-05-26T03:41:19.793Z,30
2017-05-26T03:42:00.391Z,30
2017-05-26T03:42:40.929Z,30
2017-05-26T03:43:21.532Z,35
2017-05-26T03:44:02.201Z,35
2017-05-26T03:44:42.798Z,35
2017-05-26T03:45:23.319Z,35
2017-05-26T03:46:03.914Z,35
2017-05-26T03:46:44.515Z,40
2017-05-26T03:47:25.104Z,40
2017-05-26T03:48:05.624Z,40
2017-05-26T03:48:46.219Z,40
2017-05-26T03:49:27.028Z,40
2017-05-26T03:50:07.683Z,45
2017-05-26T03:50:48.219Z,45
2017-05-26T03:51:28.827Z,45
2017-05-26T03:52:09.417Z,45
2017-05-26T03:52:50.073Z,45
2017-05-26T03:53:30.742Z,50
2017-05-26T03:54:11.398Z,50
2017-05-26T03:54:52.058Z,50
2017-05-26T03:55:32.706Z,50
2017-05-26T03:56:13.357Z,55
2017-05-26T03:56:54.010Z,55
2017-05-26T03:57:34.665Z,55
2017-05-26T03:58:15.315Z,55
2017-05-26T03:58:56.000Z,55
2017-05-26T03:59:36.626Z,60
2017-05-26T04:00:17.276Z,60
2017-05-26T04:00:57.924Z,60
2017-05-26T04:01:38.644Z,60
2017-05-26T04:02:19.226Z,65
2017-05-26T04:02:59.915Z,65
2017-05-26T04:03:40.551Z,65
2017-05-26T04:04:21.193Z,65
2017-05-26T04:05:01.849Z,70
2017-05-26T04:05:42.516Z,70
2017-05-26T04:06:23.150Z,70
2017-05-26T04:07:03.819Z,70
2017-05-26T04:07:44.496Z,75
2017-05-26T04:08:25.124Z,75
2017-05-26T04:09:05.802Z,75
2017-05-26T04:09:46.410Z,75
2017-05-26T04:10:27.090Z,75
2017-05-26T04:11:07.702Z,80
2017-05-26T04:11:48.356Z,80
2017-05-26T04:12:29.356Z,80
2017-05-26T04:13:09.929Z,80
2017-05-26T04:13:50.582Z,80
2017-05-26T04:14:31.179Z,85
2017-05-26T04:15:11.763Z,85
2017-05-26T04:15:52.285Z,85
2017-05-26T04:16:32.899Z,85
2017-05-26T04:17:13.486Z,90
2017-05-26T04:17:54.130Z,90
2017-05-26T04:18:34.791Z,90
2017-05-26T04:19:15.426Z,90
2017-05-26T04:19:56.089Z,90
2017-05-26T04:20:36.750Z,95
2017-05-26T04:21:17.400Z,95
2017-05-26T04:21:58.056Z,95
2017-05-26T04:22:38.711Z,95
2017-05-26T04:23:19.361Z,95
2017-05-26T04:24:00.009Z,100
2017-05-26T04:24:40.669Z,100
2017-05-26T04:25:21.317Z,100
2017-05-26T04:26:01.972Z,100
2017-05-26T04:26:42.628Z,100
2017-05-26T04:27:23.283Z,100
2017-05-26T04:28:03.931Z,105
2017-05-26T04:28:44.579Z,105
2017-05-26T04:29:25.235Z,105
2017-05-26T04:30:05.895Z,105
2017-05-26T04:30:46.541Z,105
2017-05-26T04:31:27.193Z,110
2017-05-26T04:32:07.838Z,110
2017-05-26T04:32:48.500Z,110
2017-05-26T04:33:29.122Z,110
2017-05-26T04:34:09.773Z,110
2017-05-26T04:34:50.327Z,115
2017-05-26T04:35:30.886Z,115
2017-05-26T04:36:11.540Z,115
2017-05-26T04:36:52.211Z,115
2017-05-26T04:37:32.889Z,115
2017-05-26T04:38:13.421Z,115
2017-05-26T04:38:54.044Z,120
2017-05-26T04:39:34.714Z,120
2017-05-26T04:40:15.293Z,120
2017-05-26T04:40:55.810Z,120
2017-05-26T04:41:36.397Z,125
2017-05-26T04:42:17.017Z,125
2017-05-26T04:42:57.675Z,125
2017-05-26T04:43:38.366Z,130
2017-05-26T04:44:19.076Z,130
2017-05-26T04:44:59.718Z,130
2017-05-26T04:45:40.364Z,130
2017-05-26T04:46:20.953Z,130
2017-05-26T04:47:01.565Z,135
2017-05-26T04:47:42.244Z,135
2017-05-26T04:48:22.895Z,135
2017-05-26T04:49:03.549Z,135
2017-05-26T04:49:44.219Z,135
2017-05-26T04:50:24.829Z,135
2017-05-26T04:51:05.377Z,140
2017-05-26T04:51:45.936Z,140
2017-05-26T04:52:26.638Z,140
2017-05-26T04:53:07.149Z,140
2017-05-26T04:53:47.749Z,140
2017-05-26T04:54:28.352Z,140
2017-05-26T04:55:08.941Z,140
2017-05-26T04:55:49.463Z,145
2017-05-26T04:56:30.077Z,145
2017-05-26T04:57:10.652Z,145
2017-05-26T04:57:51.346Z,145
2017-05-26T04:58:31.957Z,145
2017-05-26T04:59:12.625Z,145
2017-05-26T04:59:53.254Z,145
2017-05-26T05:00:33.923Z,145
2017-05-26T05:01:14.563Z,150
2017-05-26T05:01:55.226Z,150
2017-05-26T05:02:35.820Z,150
2017-05-26T05:03:16.342Z,150
2017-05-26T05:03:56.928Z,150
2017-05-26T05:04:37.539Z,150
2017-05-26T05:05:18.121Z,155
2017-05-26T05:05:58.684Z,155
2017-05-26T05:06:40.995Z,155
2017-05-26T05:07:21.566Z,155
2017-05-26T05:08:02.246Z,155
2017-05-26T05:08:42.876Z,155
2017-05-26T05:09:23.538Z,155
2017-05-26T05:10:04.208Z,155
2017-05-26T05:10:44.850Z,155
2017-05-26T05:11:25.500Z,155
2017-05-26T05:12:06.142Z,160
2017-05-26T05:12:46.683Z,160
2017-05-26T05:13:27.295Z,160
2017-05-26T05:14:08.018Z,160
2017-05-26T05:14:48.573Z,160
2017-05-26T05:15:29.193Z,165
2017-05-26T05:16:09.846Z,165
2017-05-26T05:16:50.373Z,160
2017-05-26T05:17:31.024Z,160
2017-05-26T05:18:12.661Z,160
2017-05-26T05:18:53.334Z,165
2017-05-26T05:19:33.882Z,165
2017-05-26T05:20:16.502Z,165
2017-05-26T05:20:58.129Z,165
2017-05-26T05:21:38.707Z,165
2017-05-26T05:22:19.251Z,165
2017-05-26T05:22:59.836Z,165
2017-05-26T05:23:40.485Z,165
2017-05-26T05:24:21.127Z,165
2017-05-26T05:25:01.743Z,165
2017-05-26T05:25:42.344Z,165
2017-05-26T05:26:22.995Z,165
2017-05-26T05:27:03.643Z,165
2017-05-26T05:27:44.238Z,165
2017-05-26T05:28:24.830Z,165
2017-05-26T05:29:05.351Z,165
2017-05-26T05:29:45.928Z,170
2017-05-26T05:30:26.549Z,170
2017-05-26T05:31:07.135Z,170
2017-05-26T05:31:47.675Z,170
2017-05-26T05:32:28.255Z,170
2017-05-26T05:33:08.919Z,170
2017-05-26T05:33:49.571Z,170
2017-05-26T05:34:30.212Z,170
2017-05-26T05:35:10.873Z,170
2017-05-26T05:35:51.522Z,170
2017-05-26T05:36:32.182Z,170
2017-05-26T05:37:12.840Z,170
2017-05-26T05:37:53.480Z,170
2017-05-26T05:38:34.159Z,175
2017-05-26T05:39:14.811Z,175
2017-05-26T05:39:55.484Z,175
2017-05-26T05:40:36.149Z,175
2017-05-26T05:41:16.758Z,175
2017-05-26T05:41:57.409Z,175
2017-05-26T05:42:38.012Z,175
2017-05-26T05:43:18.556Z,175
2017-05-26T05:43:59.098Z,175
2017-05-26T05:44:39.701Z,175
2017-05-26T05:45:20.279Z,175
2017-05-26T05:46:00.866Z,175
2017-05-26T05:46:41.405Z,175
2017-05-26T05:47:21.989Z,175
2017-05-26T05:48:02.585Z,175
2017-05-26T05:48:43.115Z,180
2017-05-26T05:49:24.132Z,180
2017-05-26T05:50:04.746Z,180
2017-05-26T05:50:45.269Z,180
2017-05-26T05:51:25.903Z,180
2017-05-26T05:52:06.502Z,180
2017-05-26T05:52:47.077Z,180
2017-05-26T05:53:27.650Z,180
2017-05-26T05:54:08.305Z,180
2017-05-26T05:54:48.907Z,180
2017-05-26T05:55:29.582Z,180
2017-05-26T05:56:10.115Z,180
2017-05-26T05:56:50.792Z,180
2017-05-26T05:57:31.356Z,180
2017-05-26T05:58:12.091Z,180
2017-05-26T05:58:52.791Z,180
2017-05-26T05:59:33.498Z,180
2017-05-26T06:00:14.246Z,180
2017-05-26T06:00:54.806Z,180
2017-05-26T06:01:35.457Z,185
2017-05-26T06:02:16.111Z,185
2017-05-26T06:02:56.817Z,185
2017-05-26T06:03:37.468Z,185
2017-05-26T06:04:18.145Z,185
2017-05-26T06:04:58.879Z,185
2017-05-26T06:05:39.574Z,185
2017-05-26T06:06:20.291Z,185
2017-05-26T06:07:01.048Z,185
2017-05-26T06:07:41.720Z,185
2017-05-26T06:08:22.355Z,185
2017-05-26T06:09:03.009Z,190
2017-05-26T06:09:43.678Z,185
2017-05-26T06:10:24.443Z,185
2017-05-26T06:11:05.165Z,185
2017-05-26T06:11:45.831Z,190
2017-05-26T06:12:26.467Z,190
2017-05-26T06:13:07.124Z,190
2017-05-26T06:13:47.882Z,190
2017-05-26T06:14:28.558Z,185
2017-05-26T06:15:09.294Z,185
2017-05-26T06:15:49.947Z,185
2017-05-26T06:16:30.597Z,190
2017-05-26T06:17:11.244Z,190
2017-05-26T06:17:51.953Z,190
2017-05-26T06:18:32.473Z,190
2017-05-26T06:19:13.174Z,190
2017-05-26T06:19:53.867Z,190
2017-05-26T06:20:34.470Z,190
2017-05-26T06:21:14.981Z,190
2017-05-26T06:21:55.695Z,190
2017-05-26T06:22:36.372Z,190
2017-05-26T06:23:16.968Z,185
2017-05-26T06:23:57.467Z,190
2017-05-26T06:24:38.077Z,190
2017-05-26T06:25:18.617Z,190
2017-05-26T06:25:59.170Z,190
2017-05-26T06:26:39.742Z,190
2017-05-26T06:27:20.415Z,190
2017-05-26T06:28:00.984Z,190
2017-05-26T06:28:41.645Z,190
2017-05-26T06:29:22.318Z,190
2017-05-26T06:30:02.995Z,190
2017-05-26T06:30:43.594Z,190
2017-05-26T06:31:24.150Z,190
2017-05-26T06:32:04.714Z,190
2017-05-26T06:32:45.364Z,190
2017-05-26T06:33:25.994Z,190
2017-05-26T06:34:06.590Z,185
2017-05-26T06:34:47.219Z,185
2017-05-26T06:35:27.756Z,185
2017-05-26T06:36:08.320Z,185
2017-05-26T06:36:48.981Z,185
2017-05-26T06:37:30.576Z,185
2017-05-26T06:38:11.100Z,185
2017-05-26T06:38:51.719Z,190
2017-05-26T06:39:32.306Z,190
2017-05-26T06:40:12.881Z,190
2017-05-26T06:40:53.386Z,190
2017-05-26T06:41:34.188Z,190
2017-05-26T06:42:14.811Z,190
2017-05-26T06:42:55.453Z,190
2017-05-26T06:43:36.101Z,190
2017-05-26T06:44:16.647Z,190
2017-05-26T06:44:57.192Z,190
2017-05-26T06:45:37.770Z,190
2017-05-26T06:46:18.414Z,185
2017-05-26T06:46:59.077Z,185
2017-05-26T06:47:39.577Z,185
2017-05-26T06:48:20.219Z,185
2017-05-26T06:49:00.816Z,185
2017-05-26T06:49:41.361Z,185
2017-05-26T06:50:21.977Z,185
2017-05-26T06:51:02.571Z,185
2017-05-26T06:51:43.094Z,185
2017-05-26T06:52:23.747Z,185
2017-05-26T06:53:04.421Z,185
2017-05-26T06:53:44.940Z,185
2017-05-26T06:54:25.614Z,185
2017-05-26T06:55:06.342Z,185
2017-05-26T06:55:46.935Z,185
2017-05-26T06:56:27.538Z,185
2017-05-26T06:57:08.158Z,185
2017-05-26T06:57:48.686Z,185
2017-05-26T06:58:29.309Z,185
2017-05-26T06:59:09.997Z,185
2017-05-26T06:59:50.562Z,185
2017-05-26T07:00:31.215Z,185
2017-05-26T07:01:11.889Z,185
2017-05-26T07:01:52.519Z,185
2017-05-26T07:02:33.156Z,185
2017-05-26T07:03:13.830Z,185
2017-05-26T07:03:54.484Z,185
2017-05-26T07:04:35.072Z,185
2017-05-26T07:05:15.593Z,185
2017-05-26T07:05:56.191Z,185
2017-05-26T07:06:36.780Z,185
2017-05-26T07:07:17.436Z,185
2017-05-26T07:07:57.998Z,185
2017-05-26T07:08:38.577Z,185
2017-05-26T07:09:19.173Z,185
2017-05-26T07:09:59.698Z,185
2017-05-26T07:10:40.331Z,185
2017-05-26T07:11:20.958Z,185
2017-05-26T07:12:01.463Z,185
2017-05-26T07:12:42.096Z,180
2017-05-26T07:13:22.695Z,185
2017-05-26T07:14:03.284Z,185
2017-05-26T07:14:43.796Z,185
2017-05-26T07:15:24.468Z,185
2017-05-26T07:16:05.121Z,185
2017-05-26T07:16:45.786Z,185
2017-05-26T07:17:26.320Z,185
2017-05-26T07:18:06.907Z,185
2017-05-26T07:18:47.600Z,185
2017-05-26T07:19:28.326Z,185
2017-05-26T07:20:08.989Z,185
2017-05-26T07:20:49.697Z,185
2017-05-26T07:21:30.328Z,185
2017-05-26T07:22:10.967Z,185
2017-05-26T07:22:51.635Z,185
2017-05-26T07:23:32.325Z,185
2017-05-26T07:24:13.115Z,185
2017-05-26T07:24:53.636Z,185
2017-05-26T07:25:34.349Z,190
2017-05-26T07:26:15.037Z,185
2017-05-26T07:26:55.727Z,185
2017-05-26T07:27:36.263Z,185
2017-05-26T07:28:16.974Z,185
2017-05-26T07:28:57.650Z,190
2017-05-26T07:29:38.338Z,185
2017-05-26T07:30:18.904Z,185
2017-05-26T07:30:59.571Z,185
2017-05-26T07:31:40.261Z,180
2017-05-26T07:32:20.953Z,180
2017-05-26T07:33:01.478Z,180
2017-05-26T07:33:42.167Z,180
2017-05-26T07:34:22.785Z,180
2017-05-26T07:35:03.463Z,180
2017-05-26T07:35:44.019Z,180
2017-05-26T07:36:24.682Z,180
2017-05-26T07:37:05.374Z,180
2017-05-26T07:37:46.079Z,180
2017-05-26T07:38:27.104Z,180
2017-05-26T07:39:07.815Z,180
2017-05-26T07:39:48.496Z,180
2017-05-26T07:40:29.197Z,180
2017-05-26T07:41:09.730Z,180
2017-05-26T07:41:51.695Z,180
2017-05-26T07:42:32.400Z,180
2017-05-26T07:43:13.003Z,175
2017-05-26T07:43:53.744Z,180
2017-05-26T07:44:39.422Z,180
2017-05-26T07:45:19.955Z,180
2017-05-26T07:46:01.623Z,180
2017-05-26T07:46:42.301Z,180
2017-05-26T07:47:22.835Z,180
2017-05-26T07:48:03.463Z,180
2017-05-26T07:48:44.566Z,175
2017-05-26T07:49:25.229Z,180
2017-05-26T07:50:05.879Z,180
2017-05-26T07:50:46.546Z,180
2017-05-26T07:51:27.286Z,180
2017-05-26T07:52:07.938Z,180
2017-05-26T07:52:48.629Z,175
2017-05-26T07:53:29.183Z,180
2017-05-26T07:54:09.860Z,180
2017-05-26T07:54:50.546Z,180
2017-05-26T07:55:31.257Z,175
2017-05-26T07:56:11.780Z,175
2017-05-26T07:56:52.505Z,175
2017-05-26T07:57:33.276Z,175
2017-05-26T07:58:13.797Z,175
2017-05-26T07:58:54.447Z,175
2017-05-26T07:59:35.122Z,175
2017-05-26T08:00:15.637Z,180
2017-05-26T08:00:56.300Z,180
2017-05-26T08:01:36.885Z,175
2017-05-26T08:02:17.389Z,180
2017-05-26T08:02:58.062Z,180
2017-05-26T08:03:38.724Z,180
2017-05-26T08:04:19.437Z,180
2017-05-26T08:04:59.951Z,180
2017-05-26T08:05:40.638Z,180
2017-05-26T08:06:21.357Z,180
2017-05-26T08:07:02.040Z,180
2017-05-26T08:07:42.600Z,180
2017-05-26T08:08:23.278Z,180
2017-05-26T08:09:03.956Z,180
2017-05-26T08:09:44.604Z,180
2017-05-26T08:10:25.279Z,180
2017-05-26T08:11:05.936Z,180
2017-05-26T08:11:46.561Z,185
2017-05-26T08:12:27.216Z,180
2017-05-26T08:13:07.872Z,180
2017-05-26T08:13:48.523Z,180
2017-05-26T08:14:29.197Z,180
2017-05-26T08:15:10.018Z,180
2017-05-26T08:15:51.784Z,180
2017-05-26T08:16:32.500Z,180
2017-05-26T08:17:13.338Z,180
2017-05-26T08:17:53.983Z,180
2017-05-26T08:18:35.041Z,180
2017-05-26T08:19:15.702Z,185
2017-05-26T08:19:56.344Z,180
2017-05-26T08:20:38.038Z,185
2017-05-26T08:21:19.714Z,180
2017-05-26T08:22:00.353Z,180
2017-05-26T08:22:41.013Z,180
2017-05-26T08:23:21.665Z,180
2017-05-26T08:24:02.334Z,180
2017-05-26T08:24:42.963Z,180
2017-05-26T08:25:23.617Z,180
2017-05-26T08:26:04.265Z,180
2017-05-26T08:26:44.939Z,180
2017-05-26T08:27:25.573Z,180
2017-05-26T08:28:06.111Z,180
2017-05-26T08:28:46.748Z,180
2017-05-26T08:29:27.429Z,180
2017-05-26T08:30:07.968Z,180
2017-05-26T08:30:48.625Z,180
2017-05-26T08:31:29.306Z,180
2017-05-26T08:32:11.137Z,185
2017-05-26T08:32:51.835Z,185
2017-05-26T08:33:32.577Z,185
2017-05-26T08:34:13.194Z,185
2017-05-26T08:34:53.870Z,185
2017-05-26T08:35:34.493Z,180
2017-05-26T08:36:15.141Z,180
2017-05-26T08:36:55.798Z,180
2017-05-26T08:37:36.512Z,180
2017-05-26T08:38:17.206Z,185
2017-05-26T08:38:57.895Z,180
2017-05-26T08:39:38.540Z,185
2017-05-26T08:40:19.161Z,185
2017-05-26T08:40:59.835Z,185
2017-05-26T08:41:40.494Z,185
2017-05-26T08:42:21.135Z,180
2017-05-26T08:43:01.820Z,185
2017-05-26T08:43:42.559Z,185
2017-05-26T08:44:23.332Z,185
2017-05-26T08:45:04.330Z,180
2017-05-26T08:45:45.003Z,180
2017-05-26T08:46:25.667Z,180
2017-05-26T08:47:06.318Z,180
2017-05-26T08:47:46.967Z,180
2017-05-26T08:48:27.674Z,180
2017-05-26T08:49:08.365Z,185
2017-05-26T08:49:48.918Z,185
2017-05-26T08:50:29.588Z,185
2017-05-26T08:51:10.272Z,185
2017-05-26T08:51:50.974Z,185
2017-05-26T08:52:31.491Z,185
2017-05-26T08:53:12.200Z,185
2017-05-26T08:53:52.835Z,185
2017-05-26T08:54:33.389Z,185
2017-05-26T08:55:14.054Z,185
2017-05-26T08:55:54.727Z,185
2017-05-26T08:56:35.346Z,185
2017-05-26T08:57:16.009Z,185
2017-05-26T08:57:56.661Z,185
2017-05-26T08:58:37.313Z,185
2017-05-26T08:59:17.967Z,185
2017-05-26T08:59:58.620Z,185
2017-05-26T09:00:39.357Z,185
2017-05-26T09:01:20.027Z,185
2017-05-26T09:02:00.872Z,185
2017-05-26T09:02:41.576Z,185
2017-05-26T09:03:22.249Z,185
2017-05-26T09:04:02.933Z,185
2017-05-26T09:04:43.444Z,185
2017-05-26T09:05:24.164Z,185
2017-05-26T09:06:05.259Z,185
2017-05-26T09:06:45.954Z,185
2017-05-26T09:07:26.505Z,185
2017-05-26T09:08:07.095Z,185
2017-05-26T09:08:47.792Z,190
2017-05-26T09:09:28.463Z,185
2017-05-26T09:10:08.999Z,190
2017-05-26T09:10:49.684Z,185
2017-05-26T09:11:30.395Z,185
2017-05-26T09:12:11.092Z,185
2017-05-26T09:12:51.622Z,185
2017-05-26T09:13:32.298Z,185
2017-05-26T09:14:13.006Z,185
2017-05-26T09:14:53.663Z,185
2017-05-26T09:15:34.325Z,185
2017-05-26T09:16:14.965Z,185
2017-05-26T09:16:55.619Z,185
2017-05-26T09:17:36.255Z,185
2017-05-26T09:18:17.026Z,185
2017-05-26T09:18:57.603Z,185
2017-05-26T09:19:38.273Z,185
2017-05-26T09:20:18.926Z,190
2017-05-26T09:20:59.568Z,185
2017-05-26T09:21:40.203Z,185
2017-05-26T09:22:20.897Z,190
2017-05-26T09:23:01.421Z,190
2017-05-26T09:23:42.031Z,190
2017-05-26T09:24:22.637Z,190
2017-05-26T09:25:03.166Z,190
2017-05-26T09:25:43.763Z,190
2017-05-26T09:26:24.380Z,190
2017-05-26T09:27:04.917Z,190
2017-05-26T09:27:45.567Z,185
2017-05-26T09:28:26.232Z,195
2017-05-26T09:29:06.829Z,180
2017-05-26T09:29:47.342Z,190
2017-05-26T09:30:27.945Z,190
2017-05-26T09:31:08.553Z,185
2017-05-26T09:31:49.145Z,185
2017-05-26T09:32:29.678Z,190
2017-05-26T09:33:10.413Z,185
2017-05-26T09:33:51.020Z,185
2017-05-26T09:34:31.555Z,185
2017-05-26T09:35:12.214Z,185
2017-05-26T09:35:52.859Z,185